createdAt,value
2018-05-31T10:12:52.614Z,71.50
2018-05-31T10:13:55.985Z,66.80
2018-05-31T10:14:58.504Z,66.80
2018-05-31T10:16:01.783Z,64.70
2018-05-31T10:17:05.138Z,62.90
2018-05-31T10:18:07.623Z,62.80
2018-05-31T10:19:10.218Z,62.80
2018-05-31T10:20:13.468Z,63.40
2018-05-31T10:21:15.976Z,63.20
2018-05-31T10:22:19.254Z,63.80
2018-05-31T10:23:21.742Z,63.80
2018-05-31T10:24:25.029Z,64.70
2018-05-31T10:25:28.301Z,65.20
2018-05-31T10:26:30.785Z,65.10
2018-05-31T10:27:34.067Z,65.70
2018-05-31T10:28:37.360Z,66.50
2018-05-31T10:29:40.652Z,66.90
2018-05-31T10:30:43.944Z,66.60
2018-05-31T10:31:47.239Z,66.40
2018-05-31T10:32:49.786Z,66.30
2018-05-31T10:33:52.383Z,66.00
2018-05-31T10:34:54.870Z,65.60
2018-05-31T10:35:57.403Z,65.80
2018-05-31T10:37:00.676Z,65.00
2018-05-31T10:38:03.188Z,64.90
2018-05-31T10:39:06.491Z,63.80
2018-05-31T10:40:09.010Z,63.80
2018-05-31T10:41:11.555Z,62.80
2018-05-31T10:42:14.035Z,63.50
2018-05-31T10:43:16.537Z,63.30
2018-05-31T10:44:19.826Z,62.60
2018-05-31T10:45:23.114Z,61.70
2018-05-31T10:46:26.440Z,62.70
2018-05-31T10:47:29.681Z,62.60
2018-05-31T10:48:32.934Z,62.60
2018-05-31T10:49:35.427Z,62.50
2018-05-31T10:50:37.917Z,63.10
2018-05-31T10:51:40.571Z,63.30
2018-05-31T10:52:43.038Z,64.10
2018-05-31T10:53:46.326Z,64.10
2018-05-31T10:54:48.860Z,64.10
2018-05-31T10:55:52.129Z,64.20
2018-05-31T10:56:59.915Z,64.20
2018-05-31T10:58:08.791Z,64.80
2018-05-31T10:59:11.426Z,64.70
2018-05-31T11:00:13.984Z,64.70
2018-05-31T11:01:16.489Z,64.40
2018-05-31T11:02:19.807Z,65.60
2018-05-31T11:03:27.540Z,65.60
2018-05-31T11:04:30.057Z,66.00
2018-05-31T11:05:32.560Z,66.40
2018-05-31T11:06:35.057Z,65.40
2018-05-31T11:07:37.543Z,65.10
2018-05-31T11:08:40.832Z,65.00
2018-05-31T11:09:43.316Z,64.90
2018-05-31T11:10:45.818Z,63.90
2018-05-31T11:11:48.315Z,62.90
2018-05-31T11:12:51.369Z,62.50
2018-05-31T11:13:53.864Z,61.60
2018-05-31T11:14:56.399Z,60.80
2018-05-31T11:15:58.841Z,61.10
2018-05-31T11:17:02.199Z,62.10
2018-05-31T11:18:04.695Z,62.10
2018-05-31T11:32:07.260Z,61.10
2018-05-31T11:33:09.775Z,65.10
2018-05-31T11:34:13.343Z,65.90
2018-05-31T11:35:15.813Z,66.90
2018-05-31T11:36:18.321Z,67.40
2018-05-31T11:37:20.843Z,68.10
2018-05-31T11:38:23.317Z,68.20
2018-05-31T11:39:25.895Z,69.00
2018-05-31T11:40:29.186Z,69.10
2018-05-31T11:41:31.731Z,69.00
2018-05-31T11:42:34.228Z,69.60
2018-05-31T11:43:36.726Z,69.80
2018-05-31T11:44:40.331Z,70.50
2018-05-31T11:45:44.862Z,70.00
2018-05-31T11:46:48.139Z,70.60
2018-05-31T11:47:50.686Z,70.60
2018-05-31T11:48:53.209Z,70.90
2018-05-31T11:49:56.511Z,71.40
2018-05-31T11:50:58.993Z,71.30
2018-05-31T11:52:01.487Z,71.20
2018-05-31T11:53:04.542Z,71.10
2018-05-31T11:54:07.047Z,71.30
2018-05-31T11:55:09.556Z,71.60
2018-05-31T11:56:13.672Z,71.50
2018-05-31T11:57:16.943Z,70.90
2018-05-31T11:58:20.233Z,70.80
2018-05-31T11:59:22.765Z,70.80
2018-05-31T12:00:25.367Z,70.70
2018-05-31T12:01:28.037Z,70.60
2018-05-31T12:02:30.793Z,70.10
2018-05-31T12:03:33.360Z,68.80
2018-05-31T12:04:35.903Z,68.20
2018-05-31T12:05:38.415Z,68.10
2018-05-31T12:06:40.909Z,68.80
2018-05-31T12:07:43.393Z,69.20
2018-05-31T12:08:47.059Z,69.50
2018-05-31T12:09:49.599Z,69.50
2018-05-31T12:10:52.147Z,68.60
2018-05-31T12:11:56.169Z,69.50
2018-05-31T12:12:58.665Z,69.40
2018-05-31T12:14:01.151Z,69.40
2018-05-31T12:15:03.648Z,69.40
2018-05-31T12:16:06.912Z,67.60
2018-05-31T12:17:09.449Z,67.60
2018-05-31T12:18:11.953Z,67.40
2018-05-31T12:19:14.466Z,67.70
2018-05-31T12:20:17.030Z,68.10
2018-05-31T12:21:20.274Z,68.70
2018-05-31T12:22:22.813Z,68.70
2018-05-31T12:23:25.298Z,68.60
2018-05-31T12:24:27.805Z,68.90
2018-05-31T12:25:30.378Z,68.50
2018-05-31T12:26:35.530Z,68.10
2018-05-31T12:27:38.047Z,68.60
2018-05-31T12:28:40.560Z,69.00
2018-05-31T12:29:44.821Z,68.50
2018-05-31T12:30:47.323Z,68.40
2018-05-31T12:31:49.813Z,68.30
2018-05-31T12:32:52.871Z,68.60
2018-05-31T12:33:55.518Z,68.90
2018-05-31T12:34:58.011Z,68.20
2018-05-31T12:36:01.089Z,67.90
2018-05-31T12:37:04.603Z,67.70
2018-05-31T12:38:07.645Z,67.50
2018-05-31T12:39:10.244Z,67.70
2018-05-31T12:40:12.752Z,67.20
2018-05-31T12:41:16.718Z,66.20
2018-05-31T12:42:25.352Z,66.20
2018-05-31T12:43:28.696Z,65.10
2018-05-31T12:44:34.492Z,65.70
2018-05-31T12:45:37.814Z,65.90
2018-05-31T12:46:41.093Z,66.10
2018-05-31T12:47:44.334Z,65.70
2018-05-31T12:48:46.821Z,65.80
2018-05-31T12:49:49.327Z,66.10
2018-05-31T12:50:52.614Z,66.00
2018-05-31T12:51:55.883Z,66.00
2018-05-31T12:52:58.445Z,65.90
2018-05-31T12:54:00.946Z,66.30
2018-05-31T12:55:04.246Z,67.20
2018-05-31T12:56:06.739Z,67.20
2018-05-31T12:57:09.303Z,67.60
2018-05-31T12:58:11.854Z,67.40
2018-05-31T12:59:15.119Z,68.10
2018-05-31T13:00:17.614Z,68.10
2018-05-31T13:01:20.896Z,68.60
2018-05-31T13:02:24.181Z,69.20
2018-05-31T13:03:26.701Z,68.30
2018-05-31T13:04:30.296Z,68.00
2018-05-31T13:05:35.629Z,68.00
2018-05-31T13:06:38.596Z,66.90
2018-05-31T13:07:41.114Z,67.00
2018-05-31T13:08:43.591Z,66.50
2018-05-31T13:09:46.112Z,67.00
2018-05-31T13:10:48.613Z,67.20
2018-05-31T13:11:51.101Z,66.80
2018-05-31T13:12:53.605Z,66.70
2018-05-31T13:13:56.892Z,66.20
2018-05-31T13:15:00.269Z,65.90
2018-05-31T13:16:03.552Z,66.00
2018-05-31T13:17:06.057Z,65.90
2018-05-31T13:18:09.457Z,66.20
2018-05-31T13:19:12.148Z,66.00
2018-05-31T13:20:14.639Z,65.50
2018-05-31T13:21:17.788Z,65.70
2018-05-31T13:22:20.317Z,64.90
2018-05-31T13:23:22.828Z,65.40
2018-05-31T13:24:25.331Z,64.90
2018-05-31T13:25:27.823Z,65.70
2018-05-31T13:26:30.362Z,65.20
2018-05-31T13:27:32.855Z,65.80
2018-05-31T13:28:35.388Z,65.80
2018-05-31T13:29:37.969Z,66.20
2018-05-31T13:30:40.452Z,66.60
2018-05-31T13:31:43.819Z,66.50
2018-05-31T13:32:46.339Z,67.00
2018-05-31T13:33:48.842Z,67.30
2018-05-31T13:34:52.097Z,67.80
2018-05-31T13:35:54.604Z,67.80
2018-05-31T13:36:57.101Z,67.60
2018-05-31T13:37:59.648Z,67.50
2018-05-31T13:39:02.954Z,68.00
2018-05-31T13:40:05.485Z,67.90
2018-05-31T13:41:07.964Z,67.90
2018-05-31T13:42:11.217Z,67.00
2018-05-31T13:43:13.759Z,66.80
2018-05-31T13:44:16.334Z,67.30
2018-05-31T13:45:19.025Z,66.90
2018-05-31T13:46:22.258Z,66.60
2018-05-31T13:47:24.723Z,67.00
2018-05-31T13:48:27.243Z,67.20
2018-05-31T13:49:29.781Z,67.50
2018-05-31T13:50:33.040Z,67.70
2018-05-31T13:51:35.527Z,67.70
2018-05-31T13:52:38.844Z,68.80
2018-05-31T13:53:41.336Z,68.00
2018-05-31T13:54:43.846Z,67.90
2018-05-31T13:55:46.355Z,68.30
2018-05-31T13:56:48.851Z,68.40
2018-05-31T13:57:51.345Z,68.80
2018-05-31T13:58:53.817Z,69.10
2018-05-31T13:59:56.388Z,69.30
2018-05-31T14:00:58.879Z,69.50
2018-05-31T14:02:01.447Z,70.20
2018-05-31T14:03:03.971Z,70.10
2018-05-31T14:04:06.464Z,70.90
2018-05-31T14:05:08.967Z,71.20
2018-05-31T14:06:12.279Z,71.50
2018-05-31T14:07:14.878Z,71.50
2018-05-31T14:08:17.369Z,71.40
2018-05-31T14:09:19.861Z,71.90
2018-05-31T14:10:22.441Z,71.30
2018-05-31T14:11:27.917Z,72.00
2018-05-31T14:12:30.447Z,71.90
2018-05-31T14:13:32.967Z,72.10
2018-05-31T14:14:35.469Z,73.00
2018-05-31T14:15:37.963Z,72.80
2018-05-31T14:16:41.388Z,72.90
2018-05-31T14:17:44.132Z,73.30
2018-05-31T14:18:46.803Z,73.80
2018-05-31T14:19:49.835Z,73.80
2018-05-31T14:20:53.207Z,73.80
2018-05-31T14:21:55.746Z,74.60
2018-05-31T14:22:58.259Z,74.60
2018-05-31T14:24:00.781Z,74.00
2018-05-31T14:25:03.258Z,74.50
2018-05-31T14:26:05.751Z,74.50
2018-05-31T14:27:09.025Z,74.10
2018-05-31T14:28:11.543Z,74.10
2018-05-31T14:29:14.032Z,74.00
2018-05-31T14:30:16.555Z,74.00
2018-05-31T14:31:19.892Z,74.20
2018-05-31T14:32:22.407Z,74.40
2018-05-31T14:33:25.666Z,74.40
2018-05-31T14:34:28.145Z,74.30
2018-05-31T14:35:30.657Z,74.20
2018-05-31T14:36:33.183Z,74.60
2018-05-31T14:37:35.714Z,75.00
2018-05-31T14:38:38.208Z,75.00
2018-05-31T14:39:40.715Z,75.20
2018-05-31T14:40:43.971Z,74.20
2018-05-31T14:41:46.460Z,74.20
2018-05-31T14:42:48.986Z,74.20
2018-05-31T14:43:52.460Z,74.30
2018-05-31T14:44:55.753Z,74.70
2018-05-31T14:45:58.274Z,75.00
2018-05-31T14:47:00.752Z,75.60
2018-05-31T14:48:03.367Z,76.50
2018-05-31T14:49:05.911Z,77.90
2018-05-31T14:50:08.492Z,81.20
2018-05-31T14:51:11.848Z,87.20
2018-05-31T14:52:15.280Z,87.10
2018-05-31T14:53:19.536Z,91.50
2018-05-31T14:54:22.050Z,91.50
2018-05-31T14:55:24.548Z,95.00
2018-05-31T14:56:27.062Z,99.70
2018-05-31T14:57:29.545Z,99.90
2018-05-31T14:58:32.064Z,99.90
2018-05-31T14:59:34.665Z,99.90
2018-05-31T15:00:37.157Z,99.90
2018-05-31T15:01:39.667Z,99.90
2018-05-31T15:12:28.082Z,99.90
2018-05-31T15:13:31.214Z,99.90
2018-05-31T15:14:33.733Z,99.90
2018-05-31T15:15:36.244Z,99.90
2018-05-31T15:16:39.543Z,99.90
2018-05-31T15:17:42.782Z,99.90
2018-05-31T15:18:45.323Z,99.90
2018-05-31T15:19:47.840Z,99.90
2018-05-31T15:20:50.347Z,99.90
2018-05-31T15:21:52.838Z,99.90
2018-05-31T15:22:55.353Z,99.90
2018-05-31T15:23:57.851Z,99.90
2018-05-31T15:25:01.476Z,99.90
2018-05-31T15:26:03.996Z,99.90
2018-05-31T15:27:06.520Z,99.90
2018-05-31T15:28:09.058Z,99.90
2018-05-31T15:29:12.339Z,99.90
2018-05-31T15:30:15.669Z,99.90
2018-05-31T15:31:18.191Z,99.90
2018-05-31T15:32:20.700Z,99.90
2018-05-31T15:33:23.198Z,99.90
2018-05-31T15:34:25.702Z,99.90
2018-05-31T15:35:28.995Z,99.90
2018-05-31T15:36:32.309Z,99.90
2018-05-31T15:37:34.832Z,99.90
2018-05-31T15:38:37.435Z,99.90
2018-05-31T15:39:40.706Z,99.90
2018-05-31T15:40:43.470Z,99.90
2018-05-31T15:41:46.014Z,99.90
2018-05-31T15:42:48.506Z,99.90
2018-05-31T15:43:50.988Z,99.90
2018-05-31T15:44:53.498Z,99.90
2018-05-31T15:45:56.785Z,99.90
2018-05-31T15:46:59.303Z,99.90
2018-05-31T15:48:01.801Z,99.90
2018-05-31T15:49:04.313Z,99.90
2018-05-31T15:50:06.809Z,99.90
2018-05-31T15:51:09.347Z,99.90
2018-05-31T15:52:12.640Z,99.90
2018-05-31T15:53:15.159Z,99.90
2018-05-31T15:54:17.681Z,99.90
2018-05-31T15:55:20.544Z,99.90
2018-05-31T15:56:24.545Z,99.90
2018-05-31T15:57:27.081Z,99.90
2018-05-31T15:58:29.576Z,99.90
2018-05-31T15:59:32.110Z,99.90
2018-05-31T16:00:34.605Z,99.90
2018-05-31T16:01:37.185Z,99.90
2018-05-31T16:02:40.728Z,99.90
2018-05-31T16:03:43.279Z,99.90
2018-05-31T16:04:46.567Z,99.90
2018-05-31T16:05:49.857Z,99.90
2018-05-31T16:06:52.402Z,99.90
2018-05-31T16:07:54.927Z,99.90
2018-05-31T16:08:57.454Z,99.90
2018-05-31T16:09:59.986Z,99.90
2018-05-31T16:11:02.487Z,99.90
2018-05-31T16:12:05.062Z,99.90
2018-05-31T16:13:08.563Z,99.90
2018-05-31T16:14:11.090Z,99.90
2018-05-31T16:15:13.633Z,99.90
2018-05-31T16:16:16.134Z,99.90
2018-05-31T16:17:18.661Z,99.90
2018-05-31T16:18:21.207Z,99.90
2018-05-31T16:19:23.695Z,99.90
2018-05-31T16:20:27.000Z,99.90
2018-05-31T16:21:30.298Z,99.90
2018-05-31T16:22:33.607Z,99.90
2018-05-31T16:23:36.140Z,99.90
2018-05-31T16:24:39.472Z,99.90
2018-05-31T16:25:41.976Z,99.90
2018-05-31T16:26:44.508Z,99.90
2018-05-31T16:27:47.003Z,99.90
2018-05-31T16:28:49.539Z,99.90
2018-05-31T16:29:52.052Z,99.90
2018-05-31T16:30:54.583Z,99.90
2018-05-31T16:31:57.096Z,99.90
2018-05-31T16:32:59.608Z,99.90
2018-05-31T16:34:02.137Z,99.90
2018-05-31T16:35:04.689Z,99.90
2018-05-31T16:36:07.193Z,99.90
2018-05-31T16:37:09.708Z,99.90
2018-05-31T16:38:12.253Z,99.90
2018-05-31T16:39:15.086Z,99.90
2018-05-31T16:40:18.121Z,99.90
2018-05-31T16:41:21.372Z,99.90
2018-05-31T16:42:23.918Z,99.90
2018-05-31T16:43:26.472Z,99.90
2018-05-31T16:44:28.999Z,99.90
2018-05-31T16:45:31.497Z,99.90
2018-05-31T16:46:34.782Z,99.90
2018-05-31T16:47:38.038Z,99.90
2018-05-31T16:48:41.315Z,99.90
2018-05-31T16:49:43.842Z,99.90
2018-05-31T16:50:46.369Z,99.90
2018-05-31T16:51:48.890Z,99.90
2018-05-31T16:52:51.365Z,99.90
2018-05-31T16:53:53.897Z,99.90
2018-05-31T16:54:56.428Z,99.90
2018-05-31T16:55:58.949Z,99.90
2018-05-31T16:57:02.226Z,99.90
2018-05-31T16:58:04.732Z,99.90
2018-05-31T16:59:07.232Z,99.90
2018-05-31T17:00:11.243Z,99.90
2018-05-31T17:01:13.773Z,99.90
2018-05-31T17:02:17.075Z,99.90
2018-05-31T17:03:20.341Z,99.90
2018-05-31T17:04:22.839Z,99.90
2018-05-31T17:05:26.559Z,99.90
2018-05-31T17:06:29.071Z,99.90
2018-05-31T17:07:31.832Z,99.90
2018-05-31T17:08:34.347Z,99.90
2018-05-31T17:09:36.843Z,99.90
2018-05-31T17:11:21.768Z,99.90
2018-05-31T17:12:40.343Z,99.90
2018-05-31T17:13:42.892Z,99.90
2018-05-31T17:14:46.200Z,99.90
2018-05-31T17:15:48.722Z,99.90
2018-05-31T17:16:51.265Z,99.90
2018-05-31T17:17:53.794Z,99.90
2018-05-31T17:18:57.177Z,99.90
2018-05-31T17:20:00.467Z,99.90
2018-05-31T17:21:03.738Z,99.90
2018-05-31T17:22:06.248Z,99.90
2018-05-31T17:23:08.766Z,99.90
2018-05-31T17:24:11.276Z,99.90
2018-05-31T17:25:14.539Z,99.90
2018-05-31T17:26:17.061Z,99.90
2018-05-31T17:27:19.582Z,99.90
2018-05-31T17:28:22.820Z,99.90
2018-05-31T17:29:25.366Z,99.90
2018-05-31T17:30:27.887Z,99.90
2018-05-31T17:31:30.509Z,99.90
2018-05-31T17:32:33.832Z,99.90
2018-05-31T17:33:36.377Z,99.90
2018-05-31T17:34:38.904Z,99.90
2018-05-31T17:35:41.418Z,99.90
2018-05-31T17:36:44.716Z,99.90
2018-05-31T17:37:47.246Z,99.90
2018-05-31T17:38:49.778Z,99.90
2018-05-31T17:39:52.378Z,99.90
2018-05-31T17:40:54.892Z,99.90
2018-05-31T17:41:57.548Z,99.90
2018-05-31T17:43:00.212Z,99.90
2018-05-31T17:44:02.670Z,99.90
2018-05-31T17:45:05.195Z,99.90
2018-05-31T17:46:07.735Z,99.90
2018-05-31T17:47:10.357Z,99.90
2018-05-31T17:48:13.643Z,99.90
2018-05-31T17:49:17.037Z,99.90
2018-05-31T17:50:20.425Z,99.90
2018-05-31T17:51:23.700Z,99.90
2018-05-31T17:52:27.408Z,99.90
2018-05-31T17:53:29.941Z,99.90
2018-05-31T17:54:32.457Z,99.90
2018-05-31T17:55:35.183Z,99.90
2018-05-31T17:56:37.692Z,99.90
2018-05-31T17:57:40.217Z,99.90
2018-05-31T17:58:42.779Z,99.90
2018-05-31T17:59:45.352Z,99.90
2018-05-31T18:00:47.894Z,99.90
2018-05-31T18:01:50.439Z,99.90
2018-05-31T18:02:52.959Z,99.90
2018-05-31T18:03:55.465Z,99.90
2018-05-31T18:04:57.969Z,99.90
2018-05-31T18:06:00.484Z,99.90
2018-05-31T18:07:02.990Z,99.90
2018-05-31T18:08:06.347Z,99.90
2018-05-31T18:09:08.861Z,99.90
2018-05-31T18:10:12.148Z,99.90
2018-05-31T18:11:14.713Z,99.90
2018-05-31T18:12:18.082Z,99.90
2018-05-31T18:13:23.085Z,99.90
2018-05-31T18:14:26.434Z,99.90
2018-05-31T18:15:28.902Z,99.90
2018-05-31T18:16:32.180Z,99.90
2018-05-31T18:17:35.542Z,99.90
2018-05-31T18:18:38.052Z,99.90
2018-05-31T18:19:41.364Z,99.90
2018-05-31T18:20:43.950Z,99.90
2018-05-31T18:21:46.463Z,99.90
2018-05-31T18:22:48.977Z,99.90
2018-05-31T18:23:51.547Z,99.90
2018-05-31T18:24:54.071Z,99.90
2018-05-31T18:25:56.574Z,99.90
2018-05-31T18:26:59.086Z,99.90
2018-05-31T18:28:01.628Z,99.90
2018-05-31T18:29:04.131Z,99.90
2018-05-31T18:30:06.646Z,99.90
2018-05-31T18:31:10.044Z,99.90
2018-05-31T18:32:13.345Z,99.90
2018-05-31T18:33:15.841Z,99.90
2018-05-31T18:34:18.357Z,99.90
2018-05-31T18:35:21.834Z,99.90
2018-05-31T18:36:24.355Z,99.90
2018-05-31T18:37:26.883Z,99.90
2018-05-31T18:38:29.454Z,99.90
2018-05-31T18:39:31.977Z,99.90
2018-05-31T18:40:34.507Z,99.90
2018-05-31T18:41:37.028Z,99.90
2018-05-31T18:42:39.546Z,99.90
2018-05-31T18:43:42.086Z,99.90
2018-05-31T18:44:44.600Z,99.90
2018-05-31T18:45:47.941Z,99.90
2018-05-31T18:46:50.474Z,99.90
2018-05-31T18:47:53.752Z,99.90
2018-05-31T18:48:56.259Z,99.90
2018-05-31T18:49:58.799Z,99.90
2018-05-31T18:51:02.092Z,99.90
2018-05-31T18:52:05.373Z,99.90
2018-05-31T18:53:08.704Z,99.90
2018-05-31T18:54:11.256Z,99.90
2018-05-31T18:55:13.790Z,99.90
2018-05-31T18:56:16.310Z,99.90
2018-05-31T18:57:18.906Z,99.90
2018-05-31T18:58:21.423Z,99.90
2018-05-31T18:59:24.114Z,99.90
2018-05-31T19:00:26.623Z,99.90
2018-05-31T19:01:29.177Z,99.90
2018-05-31T19:02:31.690Z,99.90
2018-05-31T19:03:35.097Z,99.90
2018-05-31T19:04:38.403Z,99.90
2018-05-31T19:05:41.682Z,99.90
2018-05-31T19:06:44.243Z,99.90
2018-05-31T19:07:46.775Z,99.90
2018-05-31T19:08:49.304Z,99.90
2018-05-31T19:09:53.575Z,99.90
2018-05-31T19:10:56.111Z,99.90
2018-05-31T19:11:58.628Z,99.90
2018-05-31T19:13:07.641Z,99.90
2018-05-31T19:14:10.284Z,99.90
2018-05-31T19:15:21.631Z,99.90
2018-05-31T19:16:16.945Z,99.90
2018-05-31T19:17:19.494Z,99.90
2018-05-31T19:18:29.208Z,99.90
2018-05-31T19:19:37.588Z,99.90
2018-05-31T19:20:40.101Z,99.90
2018-05-31T19:21:42.643Z,99.90
2018-05-31T19:22:45.167Z,99.90
2018-05-31T19:23:47.758Z,99.90
2018-05-31T19:24:55.951Z,99.90
2018-05-31T19:26:00.532Z,99.90
2018-05-31T19:27:03.074Z,99.90
2018-05-31T19:28:05.653Z,99.90
2018-05-31T19:29:08.258Z,99.90
2018-05-31T19:30:16.258Z,99.90
2018-05-31T19:31:18.825Z,99.90
2018-05-31T19:32:21.898Z,99.90
2018-05-31T19:33:24.443Z,99.90
2018-05-31T19:34:27.802Z,99.90
2018-05-31T19:35:35.945Z,99.90
2018-05-31T19:36:45.411Z,99.90
2018-05-31T19:37:47.934Z,99.90
2018-05-31T19:38:50.490Z,99.90
2018-05-31T19:39:53.824Z,99.90
2018-05-31T19:40:56.360Z,99.90
2018-05-31T19:41:58.965Z,99.90
2018-05-31T19:43:07.211Z,99.90
2018-05-31T19:45:44.331Z,99.90
2018-05-31T19:46:46.837Z,99.90
2018-05-31T19:47:50.917Z,99.90
2018-05-31T19:48:53.469Z,99.90
2018-05-31T19:49:56.044Z,99.90
2018-05-31T19:50:58.564Z,99.90
2018-05-31T19:52:07.516Z,99.90
2018-05-31T19:53:15.801Z,99.90
2018-05-31T19:54:18.349Z,99.90
2018-05-31T19:55:20.883Z,99.90
2018-05-31T19:56:24.299Z,99.90
2018-05-31T19:57:26.853Z,99.90
2018-05-31T19:58:35.009Z,99.90
2018-05-31T19:59:43.894Z,99.90
2018-05-31T20:00:53.875Z,99.90
2018-05-31T20:02:06.163Z,99.90
2018-05-31T20:03:17.691Z,99.90
2018-05-31T20:04:23.295Z,99.90
2018-05-31T20:05:28.018Z,99.90
2018-05-31T20:06:35.219Z,99.90
2018-05-31T20:07:49.805Z,99.90
2018-05-31T20:08:52.870Z,99.90
2018-05-31T20:09:55.516Z,99.90
2018-05-31T20:11:02.936Z,99.90
2018-05-31T20:12:11.508Z,99.90
2018-05-31T20:13:14.310Z,99.90
2018-05-31T20:14:23.060Z,99.90
2018-05-31T20:15:29.023Z,99.90
2018-05-31T20:16:31.719Z,99.90
2018-05-31T20:17:36.051Z,99.90
2018-05-31T20:18:40.819Z,99.90
2018-05-31T20:19:45.697Z,99.90
2018-05-31T20:21:05.759Z,99.90
2018-05-31T20:22:11.164Z,99.90
2018-05-31T20:23:14.137Z,99.90
2018-05-31T20:24:16.752Z,99.90
2018-05-31T20:25:23.988Z,99.90
2018-05-31T20:26:29.311Z,99.90
2018-05-31T20:27:41.054Z,99.90
2018-05-31T20:28:47.367Z,99.90
2018-05-31T20:29:56.987Z,99.90
2018-05-31T20:30:59.987Z,99.90
2018-05-31T20:32:19.337Z,99.90
2018-05-31T20:33:24.354Z,99.90
2018-05-31T20:34:27.617Z,99.90
2018-05-31T20:35:31.431Z,99.90
2018-05-31T20:36:35.928Z,99.90
2018-05-31T20:37:41.843Z,99.90
2018-05-31T20:38:46.595Z,99.90
2018-05-31T20:39:53.762Z,99.90
2018-05-31T20:40:56.574Z,99.90
2018-05-31T20:42:00.264Z,99.90
2018-05-31T20:43:07.867Z,99.90
2018-05-31T20:44:11.466Z,99.90
2018-05-31T20:45:15.833Z,99.90
2018-05-31T20:46:20.034Z,99.90
2018-05-31T20:47:23.838Z,99.90
2018-05-31T20:48:26.518Z,99.90
2018-05-31T20:49:29.856Z,99.90
2018-05-31T20:50:34.650Z,99.90
2018-05-31T20:51:38.028Z,99.90
2018-05-31T20:52:43.812Z,99.90
2018-05-31T20:53:58.576Z,99.90
2018-05-31T20:55:10.911Z,99.90
2018-05-31T20:56:14.876Z,99.90
2018-05-31T20:57:18.378Z,99.90
2018-05-31T20:58:21.872Z,99.90
2018-05-31T20:59:24.982Z,99.90
2018-05-31T21:00:27.770Z,99.90
2018-05-31T21:01:31.452Z,99.90
2018-05-31T21:02:34.129Z,99.90
2018-05-31T21:03:39.337Z,99.90
2018-05-31T21:04:42.735Z,99.90
2018-05-31T21:05:46.077Z,99.90
2018-05-31T21:06:48.734Z,99.90
2018-05-31T21:07:51.379Z,99.90
2018-05-31T21:08:53.925Z,99.90
2018-05-31T21:09:56.459Z,99.90
2018-05-31T21:10:59.015Z,99.90
2018-05-31T21:12:01.597Z,99.90
2018-05-31T21:13:04.096Z,99.90
2018-05-31T21:14:06.603Z,99.90
2018-05-31T21:15:09.181Z,99.90
2018-05-31T21:16:11.710Z,99.90
2018-05-31T21:17:14.240Z,99.90
2018-05-31T21:18:16.752Z,99.90
2018-05-31T21:19:19.270Z,99.90
2018-05-31T21:20:22.547Z,99.90
2018-05-31T21:21:25.836Z,99.90
2018-05-31T21:22:28.334Z,99.90
2018-05-31T21:23:30.834Z,99.90
2018-05-31T21:24:34.080Z,99.90
2018-05-31T21:25:37.374Z,99.90
2018-05-31T21:26:39.872Z,99.90
2018-05-31T21:27:42.375Z,99.90
2018-05-31T21:28:44.859Z,99.90
2018-05-31T21:29:47.354Z,99.90
2018-05-31T21:30:50.653Z,99.90
2018-05-31T21:31:53.159Z,99.90
2018-05-31T21:32:55.635Z,99.90
2018-05-31T21:33:58.141Z,99.90
2018-05-31T21:35:00.639Z,99.90
2018-05-31T21:36:03.165Z,99.90
2018-05-31T21:37:05.687Z,99.90
2018-05-31T21:38:08.202Z,99.90
2018-05-31T21:39:10.729Z,99.90
2018-05-31T21:40:13.241Z,99.90
2018-05-31T21:41:15.744Z,99.90
2018-05-31T21:42:19.012Z,99.90
2018-05-31T21:43:21.530Z,99.90
2018-05-31T21:44:24.046Z,99.90
2018-05-31T21:45:26.562Z,99.90
2018-05-31T21:46:29.084Z,99.90
2018-05-31T21:47:31.608Z,99.90
2018-05-31T21:48:34.114Z,99.90
2018-05-31T21:49:36.628Z,99.90
2018-05-31T21:50:39.890Z,99.90
2018-05-31T21:51:42.383Z,99.90
2018-05-31T21:52:45.760Z,99.90
2018-05-31T21:53:48.237Z,99.90
2018-05-31T21:54:50.712Z,99.90
2018-05-31T21:55:53.973Z,99.90
2018-05-31T21:56:56.481Z,99.90
2018-05-31T21:57:59.050Z,99.90
2018-05-31T21:59:01.502Z,99.90
2018-05-31T22:00:04.045Z,99.90
2018-05-31T22:01:07.136Z,99.90
2018-05-31T22:02:09.653Z,99.90
2018-05-31T22:03:12.142Z,99.90
2018-05-31T22:04:14.650Z,99.90
2018-05-31T22:05:17.148Z,99.90
2018-05-31T22:06:19.648Z,99.90
2018-05-31T22:07:22.307Z,99.90
2018-05-31T22:08:25.578Z,99.90
2018-05-31T22:09:28.162Z,99.90
2018-05-31T22:10:30.663Z,99.90
2018-05-31T22:11:33.164Z,99.90
2018-05-31T22:12:35.661Z,99.90
2018-05-31T22:13:38.169Z,99.90
2018-05-31T22:14:41.428Z,99.90
2018-05-31T22:15:43.913Z,99.90
2018-05-31T22:16:47.193Z,99.90
2018-05-31T22:17:49.715Z,99.90
2018-05-31T22:18:52.274Z,99.90
2018-05-31T22:19:54.787Z,99.90
2018-05-31T22:20:57.293Z,99.90
2018-05-31T22:21:59.814Z,99.90
2018-05-31T22:23:02.311Z,99.90
2018-05-31T22:24:04.846Z,99.90
2018-05-31T22:25:07.336Z,99.90
2018-05-31T22:26:09.846Z,99.90
2018-05-31T22:27:13.111Z,99.90
2018-05-31T22:28:15.621Z,99.90
2018-05-31T22:29:18.132Z,99.90
2018-05-31T22:30:20.662Z,99.90
2018-05-31T22:31:23.158Z,99.90
2018-05-31T22:32:25.651Z,99.90
2018-05-31T22:33:28.149Z,99.90
2018-05-31T22:34:30.658Z,99.90
2018-05-31T22:35:33.148Z,99.90
2018-05-31T22:36:35.650Z,99.90
2018-05-31T22:37:38.136Z,99.90
2018-05-31T22:38:40.658Z,99.90
2018-05-31T22:39:43.735Z,99.90
2018-05-31T22:40:47.316Z,99.90
2018-05-31T22:41:49.802Z,99.90
2018-05-31T22:42:52.294Z,99.90
2018-05-31T22:43:54.823Z,99.90
2018-05-31T22:44:57.296Z,99.90
2018-05-31T22:45:59.886Z,99.90
2018-05-31T22:47:02.335Z,99.90
2018-05-31T22:48:05.828Z,99.90
2018-05-31T22:49:08.300Z,99.90
2018-05-31T22:50:10.809Z,99.90
2018-05-31T22:51:13.330Z,99.90
2018-05-31T22:52:15.813Z,99.90
2018-05-31T22:53:18.301Z,99.90
2018-05-31T22:54:20.820Z,99.90
2018-05-31T22:55:24.085Z,99.90
2018-05-31T22:56:26.590Z,99.90
2018-05-31T22:57:29.842Z,99.90
2018-05-31T22:58:32.323Z,99.90
2018-05-31T22:59:34.812Z,99.90
2018-05-31T23:00:37.311Z,99.90
2018-05-31T23:01:39.862Z,99.90
2018-05-31T23:02:43.113Z,99.90
2018-05-31T23:03:45.598Z,99.90
2018-05-31T23:04:48.081Z,99.90
2018-05-31T23:05:50.590Z,99.90
2018-05-31T23:06:53.090Z,99.90
2018-05-31T23:07:55.572Z,99.90
2018-05-31T23:08:58.055Z,99.90
2018-05-31T23:10:00.572Z,99.90
2018-05-31T23:11:03.072Z,99.90
2018-05-31T23:12:05.561Z,99.90
2018-05-31T23:13:08.086Z,99.90
2018-05-31T23:14:10.644Z,99.90
2018-05-31T23:15:13.133Z,99.90
2018-05-31T23:16:15.605Z,99.90
2018-05-31T23:17:18.208Z,99.90
2018-05-31T23:18:20.680Z,99.90
2018-05-31T23:19:23.173Z,99.90
2018-05-31T23:20:26.434Z,99.90
2018-05-31T23:21:28.934Z,99.90
2018-05-31T23:22:31.438Z,99.90
2018-05-31T23:23:33.909Z,99.90
2018-05-31T23:24:36.398Z,99.90
2018-05-31T23:25:38.889Z,99.90
2018-05-31T23:26:41.378Z,99.90
2018-05-31T23:27:43.903Z,99.90
2018-05-31T23:28:46.394Z,99.90
2018-05-31T23:29:48.876Z,99.90
2018-05-31T23:30:51.376Z,99.90
2018-05-31T23:31:54.630Z,99.90
2018-05-31T23:32:57.126Z,99.90
2018-05-31T23:34:00.438Z,99.90
2018-05-31T23:35:02.929Z,99.90
2018-05-31T23:36:05.398Z,99.90
2018-05-31T23:37:07.875Z,99.90
2018-05-31T23:38:10.378Z,99.90
2018-05-31T23:39:12.886Z,99.90
2018-05-31T23:40:15.372Z,99.90
2018-05-31T23:41:17.850Z,99.90
2018-05-31T23:42:20.341Z,99.90
2018-05-31T23:43:22.843Z,99.90
2018-05-31T23:44:26.114Z,99.90
2018-05-31T23:45:28.617Z,99.90
2018-05-31T23:46:31.868Z,99.90
2018-05-31T23:47:34.352Z,99.90
2018-05-31T23:48:36.850Z,99.90
2018-05-31T23:49:40.099Z,99.90
2018-05-31T23:50:42.609Z,99.90
2018-05-31T23:51:45.854Z,99.90
2018-05-31T23:52:48.334Z,99.90
2018-05-31T23:53:50.832Z,99.90
2018-05-31T23:54:54.083Z,99.90
2018-05-31T23:55:56.562Z,99.90
2018-05-31T23:56:59.043Z,99.90
2018-05-31T23:58:01.523Z,99.90
2018-05-31T23:59:04.800Z,99.90
